Time;durP1;ratioP1;P1;durP2;ratioP2;P2;SDS_P1;SDS_P2;PMS_P1;PMS_P2;Temp;Humidity;BMP_temperature;BMP_pressure;BME280_temperature;BME280_humidity;BME280_pressure;Samples;Min_cycle;Max_cycle;Signal;HPM_P1;HPM_P2
2022/09/24 00:01:26;;;;;;;3.85;2.75;;;24.00;55.60;;;;;;5022228;28;20041;-70
2022/09/24 00:03:59;;;;;;;3.58;2.80;;;23.80;55.40;;;;;;5031384;28;20033;-70
2022/09/24 00:06:26;;;;;;;3.35;3.05;;;23.90;55.60;;;;;;5027394;28;20037;-70
2022/09/24 00:08:54;;;;;;;10.05;3.88;;;24.00;55.60;;;;;;5030908;28;20022;-70
2022/09/24 00:11:22;;;;;;;4.15;3.08;;;24.00;55.80;;;;;;5013843;28;20033;-70
2022/09/24 00:13:50;;;;;;;3.60;2.70;;;23.80;55.80;;;;;;5011721;28;20026;-70
2022/09/24 00:16:17;;;;;;;3.25;2.75;;;23.90;55.90;;;;;;5019716;28;20029;-70
2022/09/24 00:18:44;;;;;;;3.00;2.50;;;23.90;55.80;;;;;;5033474;28;20057;-70
2022/09/24 00:21:22;;;;;;;3.08;2.63;;;23.90;55.60;;;;;;5021714;28;20041;-70
2022/09/24 00:23:51;;;;;;;6.35;3.40;;;24.00;55.50;;;;;;5016447;28;20038;-70
2022/09/24 00:29:02;;;;;;;4.55;3.05;;;23.90;55.60;;;;;;5026486;28;20051;-70
2022/09/24 00:31:30;;;;;;;8.85;2.97;;;23.90;55.80;;;;;;5015904;28;20454;-70
2022/09/24 00:33:57;;;;;;;4.35;3.20;;;23.90;55.90;;;;;;5024156;28;20108;-70
2022/09/24 00:36:23;;;;;;;3.97;2.85;;;23.80;55.80;;;;;;5020356;28;20043;-70
2022/09/24 00:38:51;;;;;;;4.45;2.83;;;23.80;55.80;;;;;;5031158;28;20067;-70
2022/09/24 00:41:19;;;;;;;6.93;3.03;;;23.90;55.90;;;;;;5019048;28;20187;-70
2022/09/24 00:43:47;;;;;;;5.88;2.95;;;24.00;55.90;;;;;;5027273;28;20034;-70
2022/09/24 00:46:38;;;;;;;3.13;2.83;;;23.90;56.00;;;;;;5017727;28;20497;-70
2022/09/24 00:49:14;;;;;;;5.25;3.17;;;23.90;56.00;;;;;;5032523;28;20046;-70
2022/09/24 00:51:42;;;;;;;5.25;3.20;;;24.00;56.00;;;;;;5025396;28;20040;-71
2022/09/24 00:54:14;;;;;;;3.67;2.90;;;24.00;56.00;;;;;;5016468;28;20049;-70
2022/09/24 00:56:42;;;;;;;7.20;3.15;;;23.80;55.90;;;;;;5025209;28;20091;-70
2022/09/24 00:59:10;;;;;;;5.38;3.35;;;23.90;56.00;;;;;;5009500;28;20038;-70
2022/09/24 01:01:37;;;;;;;3.65;2.75;;;23.80;55.90;;;;;;5015808;28;20049;-70
2022/09/24 01:04:05;;;;;;;3.78;3.05;;;23.80;55.90;;;;;;5033186;28;20037;-70
2022/09/24 01:06:30;;;;;;;2.85;2.60;;;23.80;55.90;;;;;;5024872;28;20440;-70
2022/09/24 01:08:58;;;;;;;3.08;2.72;;;23.80;55.90;;;;;;5028288;28;20037;-70
2022/09/24 01:11:43;;;;;;;5.20;3.03;;;23.70;56.00;;;;;;5015411;28;20633;-70
2022/09/24 01:14:15;;;;;;;3.92;3.10;;;23.80;55.90;;;;;;5013911;28;20773;-70
2022/09/24 01:17:13;;;;;;;3.00;2.70;;;23.80;56.00;;;;;;5003739;28;20044;-70
2022/09/24 01:20:09;;;;;;;3.97;2.38;;;23.70;55.90;;;;;;4990695;28;20316;-70
2022/09/24 01:22:59;;;;;;;3.55;2.63;;;23.70;56.00;;;;;;4910039;29;20418;-71
2022/09/24 01:25:59;;;;;;;4.85;3.20;;;23.70;56.00;;;;;;4906730;29;20046;-70
2022/09/24 01:29:19;;;;;;;4.88;2.70;;;23.70;56.10;;;;;;4907897;29;20032;-70
2022/09/24 01:32:00;;;;;;;3.63;2.75;;;23.70;56.10;;;;;;4759969;30;20475;-70
2022/09/24 01:34:31;;;;;;;3.85;2.92;;;23.70;56.10;;;;;;4769539;30;20051;-71
2022/09/24 01:36:58;;;;;;;5.07;2.97;;;23.70;56.10;;;;;;4777886;30;20188;-70
2022/09/24 01:39:27;;;;;;;2.92;2.20;;;23.60;55.90;;;;;;4766286;30;20051;-70
2022/09/24 01:41:53;;;;;;;4.13;2.47;;;23.70;55.90;;;;;;4764796;30;20076;-70
2022/09/24 01:44:20;;;;;;;4.68;2.35;;;23.60;56.00;;;;;;4750941;30;20429;-70
2022/09/24 01:46:46;;;;;;;3.72;2.72;;;23.60;56.00;;;;;;4780983;30;20048;-70
2022/09/24 01:49:12;;;;;;;3.25;2.40;;;23.60;56.00;;;;;;4749294;30;20056;-71
2022/09/24 01:51:44;;;;;;;3.92;3.15;;;23.60;56.00;;;;;;4766461;30;20105;-71
2022/09/24 01:54:21;;;;;;;3.88;2.83;;;23.70;56.00;;;;;;4764104;30;20549;-70
2022/09/24 01:56:53;;;;;;;3.10;2.35;;;23.60;55.90;;;;;;4773713;30;20466;-70
2022/09/24 01:59:30;;;;;;;3.25;2.50;;;23.70;56.00;;;;;;4808542;29;20046;-70
2022/09/24 02:02:21;;;;;;;2.90;2.40;;;23.60;55.90;;;;;;4826408;29;20544;-70
2022/09/24 02:04:57;;;;;;;4.75;2.50;;;23.70;56.00;;;;;;4851585;29;20125;-70
2022/09/24 02:07:32;;;;;;;6.63;2.60;;;23.70;56.00;;;;;;4866139;28;20059;-70
2022/09/24 02:09:58;;;;;;;2.88;2.50;;;23.80;55.80;;;;;;5028405;28;20593;-70
2022/09/24 02:12:36;;;;;;;2.65;2.45;;;23.80;55.80;;;;;;5013679;28;20030;-70
2022/09/24 02:15:08;;;;;;;2.92;2.38;;;23.70;55.80;;;;;;5012062;28;20027;-70
2022/09/24 02:17:37;;;;;;;3.10;2.60;;;23.70;55.80;;;;;;5028459;28;20494;-70
2022/09/24 02:20:09;;;;;;;3.35;2.63;;;23.60;55.70;;;;;;5032236;28;20025;-70
2022/09/24 02:22:36;;;;;;;2.40;2.20;;;23.70;55.90;;;;;;5023154;28;20029;-71
2022/09/24 02:25:06;;;;;;;5.05;2.80;;;23.60;55.80;;;;;;5029050;28;20763;-70
2022/09/24 02:27:32;;;;;;;4.93;2.40;;;23.60;55.80;;;;;;5024102;28;20026;-70
2022/09/24 02:29:59;;;;;;;4.03;2.40;;;23.60;55.80;;;;;;5007970;28;20447;-71
2022/09/24 02:32:30;;;;;;;2.92;2.10;;;23.60;55.70;;;;;;5017030;28;20049;-70
2022/09/24 02:35:03;;;;;;;2.53;2.20;;;23.60;55.80;;;;;;5027073;28;20060;-70
2022/09/24 02:37:32;;;;;;;;;;;23.60;55.70;;;;;;5044448;28;20041;-70
2022/09/24 02:39:58;;;;;;;4.18;2.70;;;23.60;55.80;;;;;;5043153;28;19908;-70
2022/09/24 02:42:24;;;;;;;2.90;2.08;;;23.50;55.80;;;;;;5029054;28;20069;-71
2022/09/24 02:44:51;;;;;;;3.78;2.53;;;23.50;56.00;;;;;;5025096;28;20067;-70
2022/09/24 02:47:18;;;;;;;2.30;2.10;;;23.50;56.00;;;;;;5025983;28;20085;-70
2022/09/24 02:49:43;;;;;;;5.07;2.67;;;23.60;56.00;;;;;;5035804;28;20029;-70
2022/09/24 02:52:10;;;;;;;2.65;2.03;;;23.50;55.90;;;;;;5045099;28;20438;-71
2022/09/24 02:54:37;;;;;;;2.97;2.20;;;23.60;55.80;;;;;;4989429;28;20036;-70
2022/09/24 02:57:03;;;;;;;2.63;2.42;;;23.50;55.70;;;;;;5044309;28;20392;-70
2022/09/24 02:59:29;;;;;;;2.88;2.38;;;23.30;55.60;;;;;;5002963;28;20056;-70
2022/09/24 03:01:55;;;;;;;3.25;2.38;;;23.40;55.80;;;;;;5029959;28;20041;-70
2022/09/24 03:04:22;;;;;;;3.63;2.15;;;23.50;55.90;;;;;;5030449;28;20091;-70
2022/09/24 03:06:47;;;;;;;5.65;2.55;;;23.50;55.80;;;;;;5048800;28;20525;-70
2022/09/24 03:09:14;;;;;;;4.38;2.20;;;23.40;55.80;;;;;;5022908;28;20050;-70
2022/09/24 03:11:40;;;;;;;3.08;2.30;;;23.50;55.80;;;;;;5029238;28;20048;-70
2022/09/24 03:14:06;;;;;;;2.33;2.03;;;23.60;55.70;;;;;;5021001;28;20029;-70
2022/09/24 03:16:32;;;;;;;2.65;2.15;;;23.60;55.70;;;;;;5027095;28;20037;-70
2022/09/24 03:18:59;;;;;;;3.30;2.15;;;23.60;55.70;;;;;;5030133;28;20017;-70
2022/09/24 03:21:24;;;;;;;3.65;2.28;;;23.50;55.70;;;;;;5026171;28;20030;-70
2022/09/24 03:23:51;;;;;;;3.08;2.00;;;23.60;55.70;;;;;;5023833;28;20095;-70
2022/09/24 03:26:17;;;;;;;4.13;2.20;;;23.60;55.70;;;;;;5021917;28;20030;-71
2022/09/24 03:28:43;;;;;;;4.63;2.13;;;23.60;55.60;;;;;;5014112;28;20044;-71
2022/09/24 03:31:09;;;;;;;3.15;2.05;;;23.60;55.50;;;;;;5005506;28;20040;-70
2022/09/24 03:33:46;;;;;;;2.80;2.15;;;23.60;55.40;;;;;;5011442;28;20065;-70
2022/09/24 03:36:14;;;;;;;3.33;2.45;;;23.60;55.40;;;;;;5017549;28;20478;-69
2022/09/24 03:38:42;;;;;;;2.38;1.95;;;23.60;55.40;;;;;;5021719;28;20076;-70
2022/09/24 03:41:10;;;;;;;2.72;2.05;;;23.60;55.40;;;;;;5025845;28;20123;-70
2022/09/24 03:43:36;;;;;;;2.28;1.85;;;23.60;55.30;;;;;;5023746;28;20080;-70
2022/09/24 03:46:05;;;;;;;2.50;1.85;;;23.60;55.30;;;;;;5009999;28;20459;-70
2022/09/24 03:48:34;;;;;;;1.98;1.75;;;23.60;55.30;;;;;;5031234;28;20049;-70
2022/09/24 03:51:05;;;;;;;3.20;2.15;;;23.60;55.20;;;;;;5025509;28;20029;-69
2022/09/24 03:53:32;;;;;;;2.65;2.03;;;23.70;55.40;;;;;;5018674;28;20038;-69
2022/09/24 03:55:58;;;;;;;2.13;1.90;;;23.50;55.30;;;;;;5023252;28;20025;-70
2022/09/24 03:58:25;;;;;;;3.92;2.10;;;23.70;55.40;;;;;;5021039;28;20038;-70
2022/09/24 04:00:52;;;;;;;2.33;2.13;;;23.50;55.50;;;;;;4998529;28;20050;-70
2022/09/24 04:03:20;;;;;;;2.35;1.90;;;23.60;55.50;;;;;;5011658;28;20484;-70
2022/09/24 04:05:46;;;;;;;2.30;1.92;;;23.50;55.50;;;;;;5009329;28;20097;-70
2022/09/24 04:08:12;;;;;;;2.30;2.08;;;23.40;55.50;;;;;;5028094;28;20099;-70
2022/09/24 04:10:38;;;;;;;2.72;2.15;;;23.40;55.40;;;;;;4991771;28;20034;-70
2022/09/24 04:13:04;;;;;;;2.15;1.95;;;23.40;55.50;;;;;;5023094;28;20025;-69
2022/09/24 04:15:32;;;;;;;2.00;1.80;;;23.50;55.60;;;;;;5013314;28;20048;-70
2022/09/24 04:17:58;;;;;;;2.58;1.88;;;23.40;55.60;;;;;;5013872;28;20129;-70
2022/09/24 04:20:27;;;;;;;2.08;1.85;;;23.50;55.70;;;;;;5047963;28;20460;-70
2022/09/24 04:22:55;;;;;;;1.88;1.77;;;23.60;55.80;;;;;;5044157;28;20458;-70
2022/09/24 04:25:22;;;;;;;2.35;1.75;;;23.40;55.70;;;;;;5033367;28;20116;-70
2022/09/24 04:27:59;;;;;;;2.50;1.70;;;23.60;55.70;;;;;;5016705;28;20048;-69
2022/09/24 04:30:26;;;;;;;2.72;2.03;;;23.40;55.60;;;;;;5022321;28;20046;-70
2022/09/24 04:32:52;;;;;;;2.13;1.85;;;23.50;55.60;;;;;;5011668;28;20077;-70
2022/09/24 04:35:20;;;;;;;2.22;1.90;;;23.40;55.70;;;;;;5013356;28;20037;-70
2022/09/24 04:37:47;;;;;;;2.30;1.80;;;23.40;55.80;;;;;;5030156;28;20139;-70
2022/09/24 04:40:15;;;;;;;2.08;1.88;;;23.40;55.90;;;;;;5044609;28;20107;-70
2022/09/24 04:42:43;;;;;;;3.08;2.30;;;23.40;55.80;;;;;;5044445;28;20033;-70
2022/09/24 04:45:10;;;;;;;3.58;2.20;;;23.30;55.80;;;;;;4988534;28;20068;-70
2022/09/24 04:47:39;;;;;;;1.95;1.75;;;23.30;55.80;;;;;;5028654;28;20041;-70
2022/09/24 04:50:06;;;;;;;1.92;1.60;;;23.20;55.70;;;;;;5025385;28;20041;-70
2022/09/24 04:52:32;;;;;;;3.83;1.95;;;23.30;55.90;;;;;;5033099;28;20037;-70
2022/09/24 04:54:59;;;;;;;2.28;1.92;;;23.30;55.80;;;;;;5021269;28;20617;-70
2022/09/24 04:57:26;;;;;;;1.95;1.73;;;23.30;55.60;;;;;;5028580;28;20033;-70
2022/09/24 04:59:52;;;;;;;2.22;2.03;;;23.30;55.50;;;;;;5005056;28;20480;-70
2022/09/24 05:02:19;;;;;;;1.48;1.38;;;23.30;55.40;;;;;;5028013;28;20510;-69
2022/09/24 05:04:45;;;;;;;5.38;2.28;;;23.30;55.40;;;;;;5028727;28;20040;-71
2022/09/24 05:07:11;;;;;;;2.65;2.35;;;23.30;55.40;;;;;;5024867;28;20482;-70
2022/09/24 05:09:37;;;;;;;2.35;2.03;;;23.40;55.40;;;;;;5020765;28;20144;-70
2022/09/24 05:12:04;;;;;;;3.47;1.90;;;23.40;55.30;;;;;;5013305;28;20583;-70
2022/09/24 05:14:30;;;;;;;2.75;2.05;;;23.30;55.40;;;;;;5016868;28;20116;-70
2022/09/24 05:16:56;;;;;;;2.40;1.98;;;23.50;55.20;;;;;;5029050;28;20240;-71
2022/09/24 05:19:22;;;;;;;1.58;1.48;;;23.40;54.60;;;;;;5026823;28;20072;-70
2022/09/24 05:21:49;;;;;;;1.90;1.63;;;23.60;53.30;;;;;;5019782;28;20084;-70
2022/09/24 05:24:15;;;;;;;1.73;1.52;;;23.60;53.50;;;;;;5017133;28;20041;-70
2022/09/24 05:29:25;;;;;;;2.40;1.80;;;23.80;50.20;;;;;;5015755;28;20029;-71
2022/09/24 05:31:52;;;;;;;1.35;1.25;;;24.00;51.00;;;;;;5023505;28;20033;-70
2022/09/24 05:34:18;;;;;;;1.63;1.02;;;24.00;49.90;;;;;;5020943;28;20378;-69
2022/09/24 05:36:44;;;;;;;1.83;1.60;;;24.00;51.80;;;;;;5028492;28;20029;-69
2022/09/24 05:39:13;;;;;;;2.17;2.00;;;24.10;50.90;;;;;;5022944;28;22129;-71
2022/09/24 05:41:39;;;;;;;4.03;3.47;;;24.20;49.40;;;;;;5026280;28;20025;-68
2022/09/24 05:44:06;;;;;;;3.08;2.83;;;24.20;46.20;;;;;;5019759;28;20037;-70
2022/09/24 05:46:32;;;;;;;5.72;3.95;;;24.20;50.50;;;;;;5025821;28;20041;-70
2022/09/24 05:48:58;;;;;;;9.80;5.93;;;24.40;50.60;;;;;;5025148;28;20068;-71
2022/09/24 05:51:25;;;;;;;8.38;6.50;;;24.20;47.80;;;;;;5021011;28;20475;-72
2022/09/24 05:53:50;;;;;;;6.47;2.10;;;24.40;48.90;;;;;;5007900;28;20037;-71
2022/09/24 05:56:17;;;;;;;1.77;1.67;;;24.50;50.60;;;;;;5008662;28;20029;-74
2022/09/24 05:58:43;;;;;;;5.15;2.53;;;24.40;55.30;;;;;;4986229;28;20030;-75
2022/09/24 06:01:09;;;;;;;2.50;2.20;;;24.60;55.50;;;;;;5000667;28;20182;-75
2022/09/24 06:03:35;;;;;;;3.45;1.70;;;24.60;56.00;;;;;;5032801;28;20090;-76
2022/09/24 06:06:02;;;;;;;2.97;2.10;;;24.50;56.60;;;;;;5014235;28;20136;-76
2022/09/24 06:08:30;;;;;;;5.70;2.10;;;24.60;56.10;;;;;;5009992;28;20029;-75
2022/09/24 06:11:04;;;;;;;1.80;1.70;;;24.60;55.80;;;;;;5011765;28;20033;-74
2022/09/24 06:13:32;;;;;;;3.25;2.38;;;24.60;55.70;;;;;;5012196;28;20038;-74
2022/09/24 06:16:09;;;;;;;2.78;2.03;;;24.60;55.40;;;;;;5012469;28;20045;-75
2022/09/24 06:18:42;;;;;;;3.15;2.10;;;24.80;55.50;;;;;;5018063;28;20305;-74
2022/09/24 06:21:12;;;;;;;3.85;2.05;;;24.70;55.60;;;;;;5011309;28;20344;-75
2022/09/24 06:23:39;;;;;;;1.98;1.73;;;24.70;55.70;;;;;;5013068;28;20061;-74
2022/09/24 06:26:08;;;;;;;3.03;2.17;;;24.70;56.00;;;;;;5012023;28;20455;-75
2022/09/24 06:28:36;;;;;;;3.03;1.98;;;24.90;56.50;;;;;;5012460;28;20087;-76
2022/09/24 06:31:02;;;;;;;1.90;1.70;;;24.80;56.40;;;;;;4997330;28;20488;-74
2022/09/24 06:33:29;;;;;;;3.17;2.30;;;24.80;56.70;;;;;;5006904;28;20046;-72
2022/09/24 06:35:59;;;;;;;5.82;1.80;;;24.80;56.80;;;;;;5012135;28;20044;-71
2022/09/24 06:38:26;;;;;;;3.20;1.70;;;24.80;56.70;;;;;;5029946;28;20084;-71
2022/09/24 06:40:52;;;;;;;4.55;2.28;;;25.00;56.40;;;;;;5011769;28;20088;-71
2022/09/24 06:43:18;;;;;;;4.32;2.22;;;24.80;56.50;;;;;;5010854;28;20372;-73
2022/09/24 06:45:44;;;;;;;2.72;2.38;;;24.90;56.50;;;;;;5000374;28;20034;-72
2022/09/24 06:48:12;;;;;;;2.55;1.67;;;24.90;56.60;;;;;;5016471;28;20042;-76
2022/09/24 06:50:40;;;;;;;2.22;1.70;;;24.90;56.50;;;;;;5021487;28;20362;-73
2022/09/24 06:53:08;;;;;;;3.75;1.92;;;24.90;54.90;;;;;;5023217;28;20118;-73
2022/09/24 06:55:35;;;;;;;3.25;1.60;;;24.90;56.30;;;;;;5021904;28;20029;-73
2022/09/24 06:58:02;;;;;;;3.03;2.03;;;25.00;56.30;;;;;;5027226;28;20036;-77
2022/09/24 07:00:28;;;;;;;1.50;1.40;;;25.00;56.80;;;;;;5011962;28;20036;-75
2022/09/24 07:02:54;;;;;;;1.73;1.63;;;25.00;56.50;;;;;;5005895;28;20042;-74
2022/09/24 07:05:20;;;;;;;2.70;2.28;;;25.00;56.20;;;;;;4992201;28;20113;-73
2022/09/24 07:07:46;;;;;;;4.53;2.25;;;25.10;54.90;;;;;;5008300;28;20120;-73
2022/09/24 07:10:12;;;;;;;3.45;1.95;;;25.00;56.50;;;;;;5018840;28;20034;-75
2022/09/24 07:12:40;;;;;;;1.88;1.70;;;25.00;54.70;;;;;;5000578;28;20451;-72
2022/09/24 07:15:07;;;;;;;1.58;1.48;;;25.10;55.90;;;;;;5006589;28;20477;-74
2022/09/24 07:17:33;;;;;;;4.03;1.88;;;25.00;55.30;;;;;;5011908;28;20030;-74
2022/09/24 07:20:00;;;;;;;2.47;1.75;;;24.90;53.10;;;;;;5021977;28;20033;-75
2022/09/24 07:22:26;;;;;;;2.17;1.90;;;25.10;54.90;;;;;;5031255;28;20042;-75
2022/09/24 07:24:52;;;;;;;2.05;1.70;;;25.00;55.60;;;;;;5029791;28;20115;-75
2022/09/24 07:27:20;;;;;;;2.47;1.55;;;25.00;53.20;;;;;;5031084;28;20033;-75
2022/09/24 07:29:47;;;;;;;4.10;2.03;;;24.90;54.90;;;;;;5010208;28;20045;-75
2022/09/24 07:32:15;;;;;;;1.88;1.40;;;24.80;52.00;;;;;;4991849;28;20486;-75
2022/09/24 07:34:41;;;;;;;3.42;1.38;;;24.80;52.70;;;;;;5006340;28;20058;-75
2022/09/24 07:37:08;;;;;;;1.50;1.40;;;24.90;54.20;;;;;;5021519;28;20046;-74
2022/09/24 07:39:34;;;;;;;1.60;1.50;;;24.80;54.80;;;;;;4991016;28;20034;-75
2022/09/24 07:42:01;;;;;;;1.77;1.67;;;24.90;54.90;;;;;;4990798;28;20030;-75
2022/09/24 07:44:28;;;;;;;2.30;1.50;;;24.80;53.40;;;;;;4999010;28;20115;-75
2022/09/24 07:46:54;;;;;;;1.38;1.27;;;24.80;54.80;;;;;;5010761;28;20061;-75
2022/09/24 07:49:23;;;;;;;4.55;1.77;;;24.80;54.00;;;;;;5010868;28;20041;-75
2022/09/24 07:51:49;;;;;;;3.45;1.70;;;24.80;54.50;;;;;;5009016;28;20542;-75
2022/09/24 07:54:15;;;;;;;4.85;1.20;;;24.80;54.20;;;;;;5010219;28;20036;-75
2022/09/24 07:56:41;;;;;;;2.55;1.42;;;25.00;54.80;;;;;;5010086;28;20542;-75
2022/09/24 07:59:10;;;;;;;6.75;1.73;;;24.90;54.50;;;;;;5001638;28;20447;-75
2022/09/24 08:01:36;;;;;;;2.65;1.30;;;24.90;54.40;;;;;;4993649;28;20058;-75
2022/09/24 08:04:03;;;;;;;4.15;1.17;;;24.90;54.70;;;;;;4994501;28;20038;-75
2022/09/24 08:06:33;;;;;;;4.28;1.65;;;24.90;54.60;;;;;;5009867;28;20209;-75
2022/09/24 08:08:59;;;;;;;2.65;1.67;;;24.90;54.50;;;;;;4995287;28;20070;-75
2022/09/24 08:11:25;;;;;;;1.23;1.10;;;25.00;54.00;;;;;;4995357;28;20062;-75
2022/09/24 08:13:51;;;;;;;1.65;1.55;;;25.00;54.50;;;;;;5000742;28;20030;-75
2022/09/24 08:16:20;;;;;;;3.45;1.73;;;25.10;54.00;;;;;;5014805;28;20034;-75
2022/09/24 08:18:46;;;;;;;4.13;1.70;;;25.00;54.40;;;;;;5013321;28;20869;-74
2022/09/24 08:21:14;;;;;;;2.30;1.90;;;25.00;54.30;;;;;;5013183;28;20033;-72
2022/09/24 08:23:41;;;;;;;1.35;1.27;;;25.10;54.40;;;;;;5013284;28;20034;-75
2022/09/24 08:26:09;;;;;;;1.27;1.17;;;25.00;54.30;;;;;;5014668;28;20538;-75
2022/09/24 08:28:36;;;;;;;3.67;1.80;;;25.00;54.20;;;;;;5012777;28;20026;-75
2022/09/24 08:31:07;;;;;;;3.60;1.67;;;25.00;52.70;;;;;;5014577;28;20034;-75
2022/09/24 08:33:35;;;;;;;3.45;2.00;;;25.00;54.10;;;;;;5014284;28;20030;-75
2022/09/24 08:36:03;;;;;;;4.18;2.08;;;24.90;54.10;;;;;;5014418;28;20037;-75
2022/09/24 08:38:30;;;;;;;2.63;2.42;;;25.00;53.60;;;;;;5014258;28;20050;-75
2022/09/24 08:41:11;;;;;;;4.60;2.33;;;24.90;54.00;;;;;;5013116;28;20034;-75
2022/09/24 08:43:49;;;;;;;1.42;1.33;;;24.90;53.50;;;;;;5013029;28;20389;-75
2022/09/24 08:49:18;;;;;;;1.48;1.27;;;25.00;52.90;;;;;;5012512;28;20081;-75
2022/09/24 08:51:59;;;;;;;3.80;1.42;;;24.80;54.00;;;;;;5010606;28;20030;-75
2022/09/24 08:54:28;;;;;;;3.25;1.30;;;24.80;53.60;;;;;;5004071;28;20032;-75
2022/09/24 08:56:55;;;;;;;1.15;1.02;;;24.90;54.00;;;;;;5012672;28;20515;-75
2022/09/24 08:59:27;;;;;;;4.38;1.30;;;24.80;53.70;;;;;;5011997;28;20133;-75
2022/09/24 09:02:24;;;;;;;1.73;1.33;;;24.80;53.70;;;;;;5009875;28;20100;-75
2022/09/24 09:05:06;;;;;;;3.13;1.73;;;24.80;53.80;;;;;;4981970;28;20047;-75
2022/09/24 09:07:44;;;;;;;4.45;1.75;;;24.80;54.00;;;;;;4972018;28;20071;-75
2022/09/24 09:10:26;;;;;;;3.28;1.35;;;24.80;53.90;;;;;;4972342;28;20143;-75
2022/09/24 09:13:08;;;;;;;2.70;1.35;;;24.80;53.90;;;;;;4992619;28;20109;-75
2022/09/24 09:15:42;;;;;;;1.42;1.30;;;24.90;53.40;;;;;;4989043;28;20046;-75
2022/09/24 09:18:36;;;;;;;3.97;1.63;;;24.80;52.60;;;;;;4975934;28;20030;-75
2022/09/24 09:21:11;;;;;;;3.40;1.58;;;24.80;53.90;;;;;;4991284;28;20042;-75
2022/09/24 09:23:45;;;;;;;1.40;1.15;;;24.90;53.30;;;;;;4990312;28;20038;-75
2022/09/24 09:26:12;;;;;;;2.40;1.15;;;24.80;53.60;;;;;;4991078;28;20210;-75
2022/09/24 09:28:38;;;;;;;2.13;1.23;;;24.90;53.10;;;;;;4989884;28;20050;-75
2022/09/24 09:31:22;;;;;;;1.20;1.10;;;24.80;53.40;;;;;;4975148;28;20085;-75
2022/09/24 09:34:06;;;;;;;5.05;1.20;;;24.80;53.70;;;;;;4974798;28;20046;-74
2022/09/24 09:36:44;;;;;;;3.42;1.42;;;24.90;54.00;;;;;;4990870;28;20045;-75
2022/09/24 09:39:52;;;;;;;2.60;1.13;;;24.80;53.90;;;;;;4989915;28;20635;-75
2022/09/24 09:42:27;;;;;;;2.38;1.65;;;24.80;53.90;;;;;;4986526;28;20053;-75
2022/09/24 09:44:54;;;;;;;2.50;1.40;;;24.70;53.80;;;;;;5008474;28;20104;-75
2022/09/24 09:47:41;;;;;;;2.63;1.23;;;24.80;53.80;;;;;;5017886;28;20438;-75
2022/09/24 09:50:26;;;;;;;1.60;1.10;;;24.70;53.80;;;;;;5010133;28;20045;-75
2022/09/24 09:52:53;;;;;;;1.20;1.02;;;24.80;53.80;;;;;;4994929;28;20035;-75
2022/09/24 09:55:26;;;;;;;1.17;1.08;;;24.80;53.80;;;;;;4999466;28;20030;-75
2022/09/24 09:57:52;;;;;;;;;;;24.70;53.50;;;;;;5009463;28;20054;-75
2022/09/24 10:00:35;;;;;;;1.58;1.27;;;24.80;53.90;;;;;;4996665;28;20319;-75
2022/09/24 10:03:02;;;;;;;2.42;1.23;;;24.60;53.80;;;;;;4993310;28;20051;-75
2022/09/24 10:05:29;;;;;;;5.18;1.50;;;24.60;53.70;;;;;;4993001;28;20041;-75
2022/09/24 10:07:59;;;;;;;1.40;1.13;;;24.60;53.80;;;;;;5021547;28;20037;-75
2022/09/24 10:10:27;;;;;;;0.95;0.82;;;24.70;53.90;;;;;;5008944;28;20411;-75
2022/09/24 10:13:08;;;;;;;0.85;0.85;;;24.70;53.90;;;;;;5011530;28;20038;-75
2022/09/24 10:15:59;;;;;;;1.10;1.00;;;24.60;53.80;;;;;;4994945;28;20399;-75
2022/09/24 10:18:31;;;;;;;2.08;1.30;;;24.70;53.90;;;;;;4991848;28;20141;-76
2022/09/24 10:21:01;;;;;;;0.70;0.70;;;24.70;50.30;;;;;;5004899;28;20156;-79
2022/09/24 10:23:35;;;;;;;2.05;1.23;;;24.70;50.90;;;;;;5023636;28;20360;-77
2022/09/24 10:26:03;;;;;;;1.13;1.02;;;24.60;48.00;;;;;;5024041;28;20433;-75
2022/09/24 10:31:20;;;;;;;4.57;1.38;;;24.70;46.90;;;;;;5010264;28;20042;-76
2022/09/24 10:33:48;;;;;;;1.25;1.15;;;24.90;52.60;;;;;;5024025;28;20073;-76
2022/09/24 10:36:21;;;;;;;1.45;1.10;;;24.90;51.60;;;;;;5027736;28;20052;-76
2022/09/24 10:38:47;;;;;;;1.92;0.93;;;25.00;49.20;;;;;;5028481;28;20497;-74
2022/09/24 10:41:30;;;;;;;1.40;1.10;;;25.10;54.10;;;;;;5026649;28;20041;-76
2022/09/24 10:44:02;;;;;;;1.20;1.08;;;25.10;53.00;;;;;;5007185;28;20069;-75
2022/09/24 10:46:59;;;;;;;1.85;1.20;;;25.20;52.80;;;;;;5007131;28;20389;-79
2022/09/24 10:49:44;;;;;;;2.15;1.20;;;25.30;51.80;;;;;;4996635;28;20125;-78
2022/09/24 10:52:47;;;;;;;5.93;3.33;;;25.40;52.10;;;;;;5028743;28;20033;-78
2022/09/24 10:55:13;;;;;;;1.23;1.13;;;25.60;49.70;;;;;;5013264;28;20026;-79
2022/09/24 10:57:45;;;;;;;1.40;1.10;;;25.50;44.40;;;;;;5010823;28;20034;-79
2022/09/24 11:00:18;;;;;;;3.28;1.77;;;25.40;43.00;;;;;;5003577;28;20574;-78
2022/09/24 11:02:55;;;;;;;1.63;1.17;;;25.30;42.90;;;;;;5004985;28;20396;-74
2022/09/24 11:05:22;;;;;;;0.30;0.30;;;25.20;44.10;;;;;;5007030;28;20050;-74
2022/09/24 11:07:55;;;;;;;0.40;0.40;;;25.20;50.90;;;;;;5011325;28;20030;-77
2022/09/24 11:10:53;;;;;;;0.35;0.35;;;25.30;50.40;;;;;;5008189;28;20112;-74
2022/09/24 11:13:31;;;;;;;0.38;0.38;;;25.40;50.00;;;;;;4985061;28;20042;-72
2022/09/24 11:16:05;;;;;;;0.57;0.40;;;25.30;49.10;;;;;;4934453;28;20058;-73
2022/09/24 11:18:57;;;;;;;0.40;0.40;;;25.40;49.20;;;;;;4932258;28;20114;-74
2022/09/24 11:21:29;;;;;;;1.00;0.82;;;25.40;48.60;;;;;;4892912;29;20044;-72
2022/09/24 11:24:34;;;;;;;0.60;0.60;;;25.50;48.10;;;;;;4893637;29;20486;-74
2022/09/24 11:27:29;;;;;;;0.73;0.55;;;25.40;47.40;;;;;;4832441;29;20062;-72
2022/09/24 11:30:12;;;;;;;2.80;0.68;;;25.40;47.10;;;;;;4807025;29;20154;-70
2022/09/24 11:32:57;;;;;;;0.60;0.60;;;25.30;46.70;;;;;;4799951;29;20047;-73
2022/09/24 11:35:42;;;;;;;5.18;0.60;;;25.40;46.50;;;;;;4783997;29;20043;-73
2022/09/24 11:38:23;;;;;;;1.15;0.95;;;25.40;46.40;;;;;;4782961;29;20055;-73
2022/09/24 11:41:16;;;;;;;0.88;0.88;;;25.40;46.10;;;;;;4767106;29;20452;-71
2022/09/24 11:43:57;;;;;;;2.75;1.30;;;25.50;45.20;;;;;;4779832;29;20107;-74
2022/09/24 11:46:50;;;;;;;0.93;0.90;;;25.50;45.20;;;;;;4784746;29;20054;-74
2022/09/24 11:49:52;;;;;;;1.20;0.80;;;25.40;42.10;;;;;;4772897;29;20052;-73
2022/09/24 11:52:42;;;;;;;0.50;0.50;;;25.60;42.00;;;;;;4793598;29;20051;-75
2022/09/24 11:55:30;;;;;;;0.50;0.50;;;25.60;42.40;;;;;;4776320;29;20039;-73
2022/09/24 11:58:20;;;;;;;2.50;1.30;;;25.60;42.90;;;;;;4817508;29;20077;-74
2022/09/24 12:01:03;;;;;;;0.63;0.63;;;25.50;38.20;;;;;;4861582;29;20048;-75
2022/09/24 12:03:38;;;;;;;1.73;0.90;;;25.40;44.10;;;;;;4896343;29;20048;-74
2022/09/24 12:06:19;;;;;;;1.55;1.15;;;25.30;44.90;;;;;;4942574;28;20295;-75
2022/09/24 12:09:00;;;;;;;4.15;1.65;;;25.40;45.10;;;;;;5007121;28;20151;-76
2022/09/24 12:12:01;;;;;;;1.10;1.00;;;25.40;45.20;;;;;;5004652;28;20035;-75
2022/09/24 12:14:46;;;;;;;1.92;1.30;;;25.30;45.20;;;;;;5010614;28;20038;-75
2022/09/24 12:17:46;;;;;;;0.90;0.88;;;25.30;45.40;;;;;;5024849;28;20036;-75
2022/09/24 12:20:24;;;;;;;1.23;0.93;;;25.40;46.00;;;;;;5010887;28;20474;-75
2022/09/24 12:23:01;;;;;;;0.80;0.80;;;25.30;46.20;;;;;;5010263;28;20339;-75
2022/09/24 12:25:31;;;;;;;1.10;1.00;;;25.30;46.20;;;;;;5008268;28;20034;-75
2022/09/24 12:27:59;;;;;;;1.90;1.40;;;25.30;46.50;;;;;;5006185;28;20034;-75
2022/09/24 12:34:16;;;;;;;1.40;1.10;;;25.30;47.10;;;;;;5020332;28;20041;-75
2022/09/24 12:37:15;;;;;;;1.45;1.05;;;25.40;47.40;;;;;;4990172;28;20120;-75
2022/09/24 12:39:52;;;;;;;1.27;1.17;;;25.30;47.40;;;;;;4990211;28;20065;-75
2022/09/24 12:42:21;;;;;;;1.42;1.17;;;25.30;47.30;;;;;;4998864;28;20038;-75
2022/09/24 12:44:56;;;;;;;1.75;1.30;;;25.30;47.70;;;;;;5002195;28;20057;-75
2022/09/24 12:47:25;;;;;;;3.72;1.45;;;25.30;47.80;;;;;;5007968;28;20049;-78
2022/09/24 12:50:18;;;;;;;1.38;1.27;;;25.20;47.40;;;;;;5015083;28;20049;-75
2022/09/24 12:52:44;;;;;;;6.47;1.95;;;25.40;48.00;;;;;;5021228;28;20034;-75
2022/09/24 12:55:29;;;;;;;4.35;1.40;;;25.30;48.10;;;;;;5039087;28;20566;-75
2022/09/24 12:58:06;;;;;;;0.95;0.85;;;25.20;48.30;;;;;;5007183;28;20037;-76
2022/09/24 13:00:44;;;;;;;0.80;0.80;;;25.30;48.40;;;;;;5003474;28;20062;-75
2022/09/24 13:03:29;;;;;;;0.90;0.90;;;25.30;48.50;;;;;;5013362;28;20088;-75
2022/09/24 13:05:58;;;;;;;1.88;1.10;;;25.30;48.60;;;;;;5018250;28;20041;-76
2022/09/24 13:08:34;;;;;;;4.43;1.17;;;25.30;48.60;;;;;;5013652;28;20038;-75
2022/09/24 13:11:05;;;;;;;1.23;1.13;;;25.30;48.70;;;;;;5013592;28;20128;-76
2022/09/24 13:13:39;;;;;;;0.70;0.70;;;25.20;48.10;;;;;;5012435;28;20128;-76
2022/09/24 13:16:19;;;;;;;1.10;0.88;;;25.30;48.80;;;;;;5030659;28;20030;-76
2022/09/24 13:18:55;;;;;;;1.88;1.40;;;25.40;48.90;;;;;;5039614;28;20398;-76
2022/09/24 13:21:26;;;;;;;1.15;1.10;;;25.30;48.90;;;;;;5024385;28;20034;-76
2022/09/24 13:23:54;;;;;;;2.95;1.08;;;25.30;48.90;;;;;;5013759;28;20060;-76
2022/09/24 13:26:20;;;;;;;1.45;1.20;;;25.30;48.80;;;;;;5022129;28;20069;-76
2022/09/24 13:28:56;;;;;;;2.55;1.15;;;25.40;49.00;;;;;;5020844;28;20072;-76